Time;durP1;ratioP1;P1;durP2;ratioP2;P2;SDS_P1;SDS_P2;PMS_P1;PMS_P2;Temp;Humidity;BMP_temperature;BMP_pressure;BME280_temperature;BME280_humidity;BME280_pressure;Samples;Min_cycle;Max_cycle;Signal;HPM_P1;HPM_P2
2022/04/27 00:00:22;;;;;;;;;0.25;0.25;;;;;15.74;51.45;100671.53;146612;664;46915;-78
2022/04/27 00:03:24;;;;;;;;;1.50;0.00;;;;;15.73;50.86;100674.97;146613;684;46020;-79
2022/04/27 00:06:20;;;;;;;;;2.50;1.00;;;;;15.77;50.63;100675.97;146612;578;46016;-77
2022/04/27 00:09:12;;;;;;;;;0.25;0.00;;;;;15.82;51.43;100680.47;146616;659;46020;-77
2022/04/27 00:12:10;;;;;;;;;0.00;0.00;;;;;15.83;51.28;100679.62;146612;612;46012;-78
2022/04/27 00:15:03;;;;;;;;;2.00;1.00;;;;;15.76;52.04;100679.41;146613;569;46010;-82
2022/04/27 00:17:58;;;;;;;;;3.00;1.00;;;;;15.69;51.76;100688.78;146613;676;46034;-82
2022/04/27 00:20:53;;;;;;;;;2.50;0.00;;;;;15.64;51.57;100687.75;146619;571;45021;-83
2022/04/27 00:23:45;;;;;;;;;0.00;0.00;;;;;15.63;51.47;100685.97;146610;588;47012;-83
2022/04/27 00:26:47;;;;;;;;;1.00;1.00;;;;;15.63;51.57;100692.06;146617;595;46020;-83
2022/04/27 00:29:40;;;;;;;;;0.50;0.50;;;;;15.63;51.48;100691.19;146611;617;46016;-80
2022/04/27 00:32:35;;;;;;;;;0.75;0.00;;;;;15.62;52.09;100695.53;146614;576;46020;-81
2022/04/27 00:35:28;;;;;;;;;3.00;0.00;;;;;15.60;52.02;100686.75;146614;654;46012;-81
2022/04/27 00:38:21;;;;;;;;;1.25;1.25;;;;;15.59;53.18;100690.22;146615;653;46020;-83
2022/04/27 00:41:15;;;;;;;;;3.00;1.75;;;;;15.61;53.95;100699.00;146613;662;46016;-76
2022/04/27 00:44:08;;;;;;;;;2.75;2.00;;;;;15.61;54.96;100693.78;146616;566;46014;-75
2022/04/27 00:47:01;;;;;;;;;3.25;3.25;;;;;15.61;55.32;100692.88;146610;581;46014;-80
2022/04/27 00:50:02;;;;;;;;;3.50;2.00;;;;;14.47;57.47;100505.66;146614;600;47010;-81
2022/04/27 00:52:56;;;;;;;;;4.00;3.00;;;;;15.63;57.13;100699.91;146612;575;46916;-81
2022/04/27 00:55:49;;;;;;;;;3.75;3.00;;;;;15.62;57.54;100694.66;146616;618;46010;-82
2022/04/27 00:58:42;;;;;;;;;5.00;5.00;;;;;15.64;57.10;100690.38;146619;599;45917;-81
2022/04/27 01:01:36;;;;;;;;;3.00;2.00;;;;;15.65;57.51;100697.34;146618;665;46010;-80
2022/04/27 01:04:33;;;;;;;;;5.75;3.75;;;;;15.65;58.22;100692.13;146616;685;45917;-80
2022/04/27 01:07:27;;;;;;;;;7.00;3.00;;;;;15.68;57.11;100693.12;146617;583;46010;-84
2022/04/27 01:10:21;;;;;;;;;7.00;3.50;;;;;15.76;56.71;100689.84;146618;569;45016;-85
2022/04/27 01:13:16;;;;;;;;;4.75;3.25;;;;;15.88;56.70;100695.44;146618;630;45021;-86
2022/04/27 01:16:10;;;;;;;;;4.75;4.00;;;;;16.01;56.68;100696.69;146614;604;47014;-86
2022/04/27 01:19:03;;;;;;;;;4.75;4.00;;;;;16.08;56.83;100699.53;146617;679;46011;-84
2022/04/27 01:21:55;;;;;;;;;5.75;5.00;;;;;16.15;57.78;100703.22;146611;604;46016;-86
2022/04/27 01:24:47;;;;;;;;;3.75;3.25;;;;;16.20;57.67;100698.09;146618;694;46010;-86
2022/04/27 01:27:46;;;;;;;;;5.25;3.75;;;;;16.19;56.96;100699.81;146616;710;46012;-79
2022/04/27 01:30:50;;;;;;;;;3.75;3.00;;;;;16.17;55.85;100706.78;146618;651;46020;-76
2022/04/27 01:33:43;;;;;;;;;4.25;2.75;;;;;16.15;56.72;100705.81;146614;585;46015;-89
2022/04/27 01:36:35;;;;;;;;;3.25;3.25;;;;;16.11;56.50;100704.84;146618;575;45021;-80
2022/04/27 01:39:28;;;;;;;;;4.50;2.75;;;;;16.05;57.49;100709.03;146614;570;46016;-79
2022/04/27 01:42:20;;;;;;;;;4.25;3.25;;;;;15.94;57.18;100708.69;146620;646;45020;-82
2022/04/27 01:45:13;;;;;;;;;3.25;2.25;;;;;15.81;58.20;100715.31;146616;647;46016;-81
2022/04/27 01:48:05;;;;;;;;;3.75;2.75;;;;;15.66;57.69;100715.69;146617;569;46020;-82
2022/04/27 01:50:59;;;;;;;;;2.25;1.75;;;;;15.52;56.91;100711.78;146615;585;46014;-81
2022/04/27 01:57:01;;;;;;;;;2.00;2.00;;;;;15.30;57.56;100719.78;146615;573;45915;-86
2022/04/27 01:59:55;;;;;;;;;3.25;1.50;;;;;15.18;57.02;100717.66;146620;565;45020;-87
2022/04/27 02:02:47;;;;;;;;;2.00;2.00;;;;;15.06;57.53;100725.97;146617;683;45016;-77
2022/04/27 02:05:40;;;;;;;;;1.00;1.00;;;;;14.93;57.42;100729.91;146617;644;46010;-76
2022/04/27 02:08:46;;;;;;;;;1.00;1.00;;;;;14.77;57.07;100736.34;146611;584;46916;-76
2022/04/27 02:15:55;;;;;;;;;2.75;1.75;;;;;14.62;56.10;100741.03;146614;671;46012;-83
2022/04/27 02:18:48;;;;;;;;;1.75;1.75;;;;;14.62;57.35;100737.53;146613;666;46021;-78
2022/04/27 02:21:40;;;;;;;;;1.00;1.00;;;;;14.60;58.61;100734.84;146614;611;46014;-77
2022/04/27 02:25:15;;;;;;;;;3.00;1.00;;;;;13.54;56.05;100573.69;146620;619;45020;-79
2022/04/27 02:28:16;;;;;;;;;2.25;2.25;;;;;14.64;56.91;100749.81;146609;626;47012;-80
2022/04/27 02:31:09;;;;;;;;;3.25;2.00;;;;;14.71;59.10;100751.78;146617;563;46020;-79
2022/04/27 02:34:01;;;;;;;;;5.75;3.50;;;;;14.71;60.55;100757.00;146613;576;46012;-79
2022/04/27 02:36:53;;;;;;;;;4.00;3.00;;;;;14.70;60.13;100752.63;146617;563;46010;-79
2022/04/27 02:39:45;;;;;;;;;4.25;3.00;;;;;14.68;61.69;100761.22;146612;627;46016;-76
2022/04/27 02:42:38;;;;;;;;;3.75;3.25;;;;;14.63;62.94;100755.84;146612;604;47010;-76
2022/04/27 02:45:30;;;;;;;;;3.00;2.50;;;;;14.61;61.17;100761.81;146614;619;46012;-74
2022/04/27 02:48:22;;;;;;;;;5.00;2.00;;;;;14.55;60.78;100757.31;146615;637;45021;-75
2022/04/27 02:54:26;;;;;;;;;4.50;2.00;;;;;14.53;58.34;100758.97;146614;602;46020;-79
2022/04/27 02:57:18;;;;;;;;;3.00;3.00;;;;;14.57;58.99;100763.44;146612;576;46917;-83
2022/04/27 03:00:11;;;;;;;;;2.00;2.00;;;;;14.57;58.50;100767.78;146612;640;46020;-83
2022/04/27 03:03:03;;;;;;;;;2.75;2.75;;;;;14.50;58.69;100770.13;146614;625;46017;-80
2022/04/27 03:05:55;;;;;;;;;3.00;2.00;;;;;14.38;58.56;100774.03;146616;695;47010;-80
2022/04/27 03:08:48;;;;;;;;;3.75;1.75;;;;;14.24;58.32;100768.31;146612;579;46016;-80
2022/04/27 03:11:40;;;;;;;;;1.75;1.75;;;;;14.18;58.26;100773.31;146614;629;47010;-83
2022/04/27 03:14:32;;;;;;;;;3.00;1.00;;;;;14.11;59.08;100777.38;146611;583;47012;-86
2022/04/27 03:17:24;;;;;;;;;2.00;2.00;;;;;13.24;58.21;100641.09;146614;564;46020;-85
2022/04/27 03:20:16;;;;;;;;;0.75;0.75;;;;;13.98;59.40;100789.06;146612;652;46016;-85
2022/04/27 03:23:08;;;;;;;;;3.50;2.00;;;;;13.88;59.40;100780.84;146613;577;47010;-85
2022/04/27 03:26:00;;;;;;;;;2.25;2.25;;;;;13.82;58.70;100784.97;146614;573;46917;-84
2022/04/27 03:28:53;;;;;;;;;3.00;2.00;;;;;13.81;58.15;100797.97;146614;662;46020;-75
2022/04/27 03:31:44;;;;;;;;;1.75;1.00;;;;;13.83;57.90;100793.66;146610;566;46016;-75
2022/04/27 03:34:36;;;;;;;;;4.00;1.00;;;;;13.89;57.74;100803.47;146634;675;45010;-75
2022/04/27 03:37:29;;;;;;;;;1.75;1.00;;;;;13.98;58.55;100803.81;146634;655;45016;-76
2022/04/27 03:40:21;;;;;;;;;1.50;1.00;;;;;14.00;58.17;100808.25;146636;569;46010;-75
2022/04/27 03:43:14;;;;;;;;;5.25;2.00;;;;;14.02;57.71;100809.22;146635;710;45014;-75
2022/04/27 03:46:06;;;;;;;;;3.25;1.50;;;;;13.99;58.45;100808.22;146636;598;45010;-74
2022/04/27 03:48:58;;;;;;;;;4.00;2.25;;;;;13.99;59.06;100813.44;146633;645;45017;-75
2022/04/27 03:51:50;;;;;;;;;2.00;1.75;;;;;13.98;58.50;100814.25;146638;575;45020;-78
2022/04/27 03:58:53;;;;;;;;;10.75;8.25;;;;;14.08;56.57;100827.72;146634;580;45022;-74
2022/04/27 04:01:46;;;;;;;;;5.00;4.00;;;;;14.11;57.49;100824.31;146635;604;45017;-75
2022/04/27 04:04:41;;;;;;;;;5.50;3.50;;;;;14.16;57.24;100824.50;146635;600;45020;-74
2022/04/27 04:08:13;;;;;;;;;2.00;2.00;;;;;14.20;56.21;100840.31;146631;695;46016;-82
2022/04/27 04:11:05;;;;;;;;;4.25;3.75;;;;;14.27;57.26;100838.84;146636;573;45010;-78
2022/04/27 04:13:57;;;;;;;;;3.75;2.50;;;;;14.36;57.50;100848.72;146633;625;45016;-75
2022/04/27 04:16:49;;;;;;;;;2.00;0.00;;;;;14.42;57.57;100847.22;146640;627;45010;-77
2022/04/27 04:19:41;;;;;;;;;2.00;1.50;;;;;14.54;58.07;100854.66;146636;661;44918;-74
2022/04/27 04:22:33;;;;;;;;;3.00;2.50;;;;;14.61;57.90;100847.94;146638;623;44020;-73
2022/04/27 04:28:35;;;;;;;;;4.75;4.00;;;;;14.75;58.47;100868.50;146635;672;45014;-70
2022/04/27 04:31:28;;;;;;;;;6.00;4.75;;;;;14.85;58.14;100858.41;146633;565;45917;-75
2022/04/27 04:34:20;;;;;;;;;9.50;5.75;;;;;14.98;58.21;100871.06;146641;621;45010;-79
2022/04/27 04:37:12;;;;;;;;;3.75;3.75;;;;;14.15;57.75;100697.56;146631;615;45916;-79
2022/04/27 04:40:04;;;;;;;;;7.75;4.50;;;;;15.31;58.42;100870.47;146635;740;45010;-76
2022/04/27 04:42:56;;;;;;;;;9.25;5.25;;;;;15.58;58.07;100875.75;146630;709;45016;-76
2022/04/27 04:45:48;;;;;;;;;6.00;4.00;;;;;15.83;57.01;100872.25;146637;652;45010;-79
2022/04/27 04:48:40;;;;;;;;;5.75;5.75;;;;;16.07;57.57;100875.59;146636;594;45016;-79
2022/04/27 04:51:33;;;;;;;;;6.75;5.00;;;;;16.38;55.76;100889.62;146636;661;45010;-78
2022/04/27 04:54:25;;;;;;;;;6.00;4.00;;;;;16.63;54.67;100876.47;146635;644;45017;-84
2022/04/27 04:57:17;;;;;;;;;5.50;4.00;;;;;16.93;54.94;100886.06;146637;573;45010;-83
2022/04/27 05:00:10;;;;;;;;;3.50;3.00;;;;;17.22;54.39;100893.81;146635;596;45916;-81
2022/04/27 05:03:03;;;;;;;;;3.75;2.00;;;;;17.47;52.95;100888.37;146638;585;44021;-82
2022/04/27 05:05:55;;;;;;;;;5.75;4.00;;;;;17.72;51.78;100895.13;146634;628;45016;-82
2022/04/27 05:08:49;;;;;;;;;8.00;6.00;;;;;17.90;51.35;100897.34;146636;665;45025;-79
2022/04/27 05:11:56;;;;;;;;;5.75;4.50;;;;;18.07;50.78;100903.00;146635;566;45917;-80
2022/04/27 05:14:48;;;;;;;;;3.75;3.75;;;;;18.22;50.52;100902.47;146639;633;45010;-79
2022/04/27 05:17:40;;;;;;;;;6.00;5.00;;;;;18.36;50.65;100915.91;146637;597;45012;-80
2022/04/27 05:20:32;;;;;;;;;6.25;5.50;;;;;18.50;49.74;100908.31;146635;728;45020;-75
2022/04/27 05:23:25;;;;;;;;;6.00;5.00;;;;;18.63;49.72;100911.28;146637;564;45016;-88
2022/04/27 05:26:21;;;;;;;;;4.50;4.50;;;;;18.79;50.08;100916.88;146640;616;45010;-88
2022/04/27 05:32:27;;;;;;;;;6.25;4.25;;;;;19.24;49.85;100922.16;146625;564;46010;-87
2022/04/27 05:39:25;;;;;;;;;4.25;3.25;;;;;19.73;48.83;100930.09;146614;594;46011;-87
2022/04/27 05:42:17;;;;;;;;;5.25;4.75;;;;;19.93;47.99;100919.88;146614;605;46012;-87
2022/04/27 05:45:11;;;;;;;;;7.00;5.75;;;;;20.08;48.55;100925.37;146614;564;46020;-79
2022/04/27 05:48:03;;;;;;;;;5.00;4.00;;;;;20.25;50.33;100930.94;146613;615;46915;-80
2022/04/27 05:50:55;;;;;;;;;3.75;3.00;;;;;20.38;50.10;100935.50;146616;632;46020;-87
2022/04/27 05:53:47;;;;;;;;;12.00;8.75;;;;;20.50;50.85;100940.06;146608;610;46016;-86
2022/04/27 05:56:39;;;;;;;;;20.75;14.00;;;;;20.53;53.06;100953.31;146610;569;46010;-83
2022/04/27 05:59:31;;;;;;;;;15.50;15.25;;;;;20.48;53.13;100944.41;146606;635;46016;-81
2022/04/27 06:02:23;;;;;;;;;12.75;11.00;;;;;20.47;53.06;100945.28;146610;633;46010;-81
2022/04/27 06:05:15;;;;;;;;;13.75;12.25;;;;;20.57;52.68;100939.31;146608;597;46914;-81
2022/04/27 06:08:09;;;;;;;;;13.75;11.00;;;;;20.81;51.51;100943.13;146608;577;47010;-81
2022/04/27 06:11:01;;;;;;;;;9.25;8.50;;;;;21.00;51.22;100937.25;146613;573;45914;-82
2022/04/27 06:13:53;;;;;;;;;8.25;6.00;;;;;21.15;50.18;100947.97;146615;575;46010;-82
2022/04/27 06:16:45;;;;;;;;;6.25;4.00;;;;;21.24;49.92;100944.53;146613;565;46017;-77
2022/04/27 06:19:38;;;;;;;;;6.00;4.25;;;;;21.33;47.39;100949.03;146614;564;46020;-81
2022/04/27 06:22:30;;;;;;;;;4.50;4.25;;;;;21.40;47.17;100951.81;146611;622;46017;-84
2022/04/27 06:25:22;;;;;;;;;3.00;3.00;;;;;21.49;46.46;100950.09;146616;656;46030;-83
2022/04/27 06:28:14;;;;;;;;;7.25;4.75;;;;;21.55;47.78;100952.81;146613;615;45915;-79
2022/04/27 06:31:07;;;;;;;;;7.00;4.25;;;;;21.61;48.71;100956.38;146615;616;46021;-78
2022/04/27 06:33:59;;;;;;;;;6.00;5.00;;;;;21.59;47.10;100946.72;146613;610;46012;-80
2022/04/27 06:36:51;;;;;;;;;4.67;4.00;;;;;21.63;47.29;100952.03;146614;571;46020;-79
2022/04/27 06:39:45;;;;;;;;;7.33;6.00;;;;;21.71;48.25;100953.84;146615;661;46012;-79
2022/04/27 06:42:37;;;;;;;;;12.50;10.00;;;;;21.80;46.73;100949.53;146610;565;46020;-80
2022/04/27 06:45:31;;;;;;;;;8.75;8.00;;;;;20.99;46.48;100806.28;146613;688;46016;-80
2022/04/27 06:48:23;;;;;;;;;3.33;3.33;;;;;21.87;46.37;100961.03;146615;573;46014;-79
2022/04/27 06:51:18;;;;;;;;;7.00;5.25;;;;;21.89;48.09;100952.25;146609;585;47014;-80
2022/04/27 06:54:10;;;;;;;;;5.25;4.25;;;;;21.95;46.79;100956.69;146613;640;46038;-79
2022/04/27 06:57:02;;;;;;;;;3.67;3.67;;;;;21.98;46.91;100961.12;146616;602;46025;-80
2022/04/27 06:59:54;;;;;;;;;6.00;5.00;;;;;21.92;46.90;100972.50;146618;573;46020;-80
2022/04/27 07:02:47;;;;;;;;;6.00;5.00;;;;;21.88;46.99;100971.59;146613;606;46016;-79
2022/04/27 07:05:43;;;;;;;;;6.00;4.67;;;;;21.90;47.96;100969.88;146616;637;46020;-81
2022/04/27 07:08:36;;;;;;;;;2.00;2.00;;;;;22.00;46.89;100977.88;146612;570;47012;-81
2022/04/27 07:11:28;;;;;;;;;5.67;4.00;;;;;22.04;46.95;100972.63;146617;584;46020;-76
2022/04/27 07:14:20;;;;;;;;;4.33;4.33;;;;;22.06;46.57;100973.53;146615;604;46016;-87
2022/04/27 07:17:15;;;;;;;;;7.67;4.67;;;;;22.13;47.24;100980.63;146615;575;46020;-85
2022/04/27 07:20:07;;;;;;;;;3.00;3.00;;;;;22.27;47.14;100978.09;146615;585;46016;-85
2022/04/27 07:22:59;;;;;;;;;5.75;4.00;;;;;22.39;47.00;100979.94;146616;571;46020;-84
2022/04/27 07:25:54;;;;;;;;;3.67;3.33;;;;;22.49;46.14;100970.31;146614;607;46012;-75
2022/04/27 07:28:46;;;;;;;;;4.67;3.00;;;;;22.67;46.32;100985.41;146617;631;46020;-79
2022/04/27 07:31:38;;;;;;;;;4.00;4.00;;;;;22.72;46.07;100983.69;146612;612;46016;-77
2022/04/27 07:34:30;;;;;;;;;5.50;3.50;;;;;22.84;45.66;100991.69;146634;570;45010;-78
2022/04/27 07:37:23;;;;;;;;;8.00;5.67;;;;;22.89;45.73;100989.06;146636;571;45915;-80
2022/04/27 07:40:16;;;;;;;;;8.00;6.25;;;;;22.93;45.40;100994.38;146639;678;45014;-77
2022/04/27 07:43:08;;;;;;;;;5.00;4.00;;;;;23.04;45.14;100995.34;146632;577;45033;-78
2022/04/27 07:46:00;;;;;;;;;5.25;4.00;;;;;23.13;44.77;100989.22;146632;572;46919;-75
2022/04/27 07:48:53;;;;;;;;;3.33;2.67;;;;;23.11;44.56;100982.13;146634;589;45016;-79
2022/04/27 07:51:46;;;;;;;;;6.67;5.67;;;;;23.22;44.82;100991.00;146638;623;45010;-81
2022/04/27 07:54:40;;;;;;;;;5.33;4.00;;;;;23.28;43.93;100976.03;146636;565;45016;-79
2022/04/27 07:57:37;;;;;;;;;5.75;5.00;;;;;23.42;44.35;100983.13;146641;591;45010;-77
2022/04/27 08:00:29;;;;;;;;;12.50;11.25;;;;;23.57;43.93;100982.28;146624;615;45915;-80
2022/04/27 08:03:21;;;;;;;;;5.00;4.00;;;;;23.66;43.86;100987.59;146634;640;45020;-83
2022/04/27 08:06:14;;;;;;;;;5.50;4.50;;;;;23.65;43.38;100980.53;146633;564;45915;-87
2022/04/27 08:09:06;;;;;;;;;7.00;5.67;;;;;23.61;43.84;100990.22;146640;579;44021;-78
2022/04/27 08:12:00;;;;;;;;;3.67;3.00;;;;;23.67;44.29;100984.06;146635;571;46014;-87
2022/04/27 08:14:53;;;;;;;;;6.50;3.00;;;;;22.88;43.86;100834.81;146640;569;45021;-89
2022/04/27 08:17:59;;;;;;;;;1.50;1.50;;;;;22.26;43.65;100728.03;146633;704;45016;-87
2022/04/27 08:24:06;;;;;;;;;9.50;4.75;;;;;23.74;43.51;100986.75;146631;571;45016;-84
2022/04/27 08:26:59;;;;;;;;;3.50;2.25;;;;;23.76;43.69;100981.47;146636;578;45020;-92
2022/04/27 08:32:33;;;;;;;;;7.50;4.75;;;;;22.08;42.95;100652.25;146617;606;46020;-91
2022/04/27 08:35:32;;;;;;;;;7.00;6.00;;;;;22.34;42.86;100669.97;146614;616;46015;-90
2022/04/27 08:38:24;;;;;;;;;6.25;5.00;;;;;24.29;43.09;100977.94;146610;449;46918;-91
2022/04/27 08:41:19;;;;;;;;;6.00;6.00;;;;;24.49;41.72;100974.41;146606;612;46917;-88
2022/04/27 08:44:11;;;;;;;;;8.25;5.00;;;;;24.67;43.53;100977.00;146621;570;46011;-88
2022/04/27 08:47:17;;;;;;;;;7.25;6.00;;;;;24.85;42.23;100976.06;146614;686;45914;-91
2022/04/27 08:50:23;;;;;;;;;6.50;6.50;;;;;24.33;40.96;100848.94;146608;596;46010;-91
2022/04/27 08:53:19;;;;;;;;;9.25;8.25;;;;;25.22;41.11;100966.22;146610;581;45915;-84
2022/04/27 08:56:16;;;;;;;;;5.00;4.00;;;;;25.30;39.83;100967.06;146609;692;46020;-91
2022/04/27 08:59:09;;;;;;;;;6.33;4.00;;;;;25.26;40.65;100961.75;146609;651;46013;-89
2022/04/27 09:02:32;;;;;;;;;4.67;4.67;;;;;25.16;41.05;100966.25;146609;576;45020;-88
2022/04/27 09:05:26;;;;;;;;;7.75;5.00;;;;;22.86;41.10;100580.13;146614;579;46013;-88
2022/04/27 09:08:18;;;;;;;;;5.75;5.50;;;;;25.22;40.26;100958.25;146612;637;46010;-85
2022/04/27 09:11:28;;;;;;;;;6.50;6.25;;;;;25.26;40.83;100953.81;146607;574;45915;-90
2022/04/27 09:14:22;;;;;;;;;7.25;5.00;;;;;25.28;40.34;100957.34;146619;583;45021;-88
2022/04/27 09:20:47;;;;;;;;;4.00;4.00;;;;;25.44;40.70;100952.81;146622;575;45020;-87
2022/04/27 09:23:45;;;;;;;;;8.00;6.00;;;;;23.02;39.74;100544.88;146610;569;47012;-91
2022/04/27 09:26:38;;;;;;;;;5.00;5.00;;;;;25.58;40.65;100961.59;146621;600;46010;-87
2022/04/27 09:29:31;;;;;;;;;4.25;4.25;;;;;25.62;39.33;100954.47;146613;671;46016;-90
2022/04/27 09:32:23;;;;;;;;;5.67;5.33;;;;;25.65;40.13;100947.38;146617;575;46020;-89
2022/04/27 09:35:16;;;;;;;;;9.50;5.00;;;;;25.71;39.63;100949.09;146616;569;45915;-88
2022/04/27 09:38:26;;;;;;;;;6.00;4.67;;;;;25.80;40.12;100954.34;146617;655;46010;-89
2022/04/27 09:41:50;;;;;;;;;7.00;6.00;;;;;25.83;40.78;100948.16;146613;576;46016;-88
2022/04/27 09:44:44;;;;;;;;;4.67;3.67;;;;;25.88;38.29;100946.34;146608;634;46021;-86
2022/04/27 09:47:48;;;;;;;;;7.33;5.00;;;;;24.91;39.67;100781.53;146605;565;46024;-86
2022/04/27 09:51:01;;;;;;;;;5.33;5.00;;;;;25.89;40.33;100949.00;146610;597;46010;-92
2022/04/27 09:53:55;;;;;;;;;5.67;5.00;;;;;25.90;39.59;100952.53;146618;572;45917;-90
2022/04/27 09:57:19;;;;;;;;;6.00;5.00;;;;;23.70;40.94;100568.47;146615;625;47010;-91
2022/04/27 10:00:14;;;;;;;;;6.33;5.33;;;;;26.06;38.61;100954.16;146605;597;46014;-90
2022/04/27 10:03:07;;;;;;;;;4.33;3.33;;;;;26.09;39.06;100946.16;146608;570;46010;-88
2022/04/27 10:06:00;;;;;;;;;8.33;7.00;;;;;26.12;40.72;100953.22;146607;517;46918;-89
2022/04/27 10:08:53;;;;;;;;;7.67;6.33;;;;;26.08;40.75;100954.16;146619;620;46010;-84
2022/04/27 10:11:46;;;;;;;;;8.00;6.00;;;;;25.90;41.50;100956.06;146610;595;46915;-78
2022/04/27 10:14:39;;;;;;;;;8.25;7.00;;;;;25.82;41.84;100949.03;146613;693;46020;-82
2022/04/27 10:17:32;;;;;;;;;4.67;4.67;;;;;25.72;41.83;100937.59;146611;596;47012;-82
2022/04/27 10:20:37;;;;;;;;;7.00;7.00;;;;;25.68;41.93;100943.81;146619;570;46010;-84
2022/04/27 10:23:34;;;;;;;;;8.00;8.00;;;;;25.57;41.44;100935.91;146615;569;46012;-81
2022/04/27 10:26:36;;;;;;;;;7.33;7.00;;;;;25.49;41.85;100935.97;146611;674;46020;-85
2022/04/27 10:29:28;;;;;;;;;8.00;7.67;;;;;24.71;40.76;100803.78;146611;613;46915;-84
2022/04/27 10:32:42;;;;;;;;;9.33;9.00;;;;;25.44;41.61;100947.50;146605;585;47010;-85
2022/04/27 10:35:37;;;;;;;;;7.33;6.67;;;;;24.69;41.08;100807.31;146612;596;46017;-86
2022/04/27 10:38:29;;;;;;;;;6.00;5.00;;;;;25.56;41.77;100942.13;146614;644;47020;-84
2022/04/27 10:41:22;;;;;;;;;6.00;6.00;;;;;25.65;43.21;100943.84;146613;582;46016;-85
2022/04/27 10:44:14;;;;;;;;;6.00;5.67;;;;;25.74;42.23;100935.81;146617;618;46010;-83
2022/04/27 10:47:23;;;;;;;;;8.67;7.67;;;;;25.80;42.08;100935.75;146614;573;46016;-85
2022/04/27 10:50:29;;;;;;;;;6.33;5.67;;;;;25.71;41.25;100942.00;146613;580;47014;-85
2022/04/27 10:53:23;;;;;;;;;6.00;5.00;;;;;25.55;41.03;100937.72;146610;576;46012;-83
2022/04/27 10:56:29;;;;;;;;;6.67;5.00;;;;;25.49;41.86;100932.44;146615;622;46011;-83
2022/04/27 10:59:48;;;;;;;;;7.67;6.33;;;;;25.09;41.87;100893.72;146613;653;46016;-86
2022/04/27 11:02:44;;;;;;;;;6.67;5.00;;;;;25.26;41.07;100930.78;146616;591;45020;-84
2022/04/27 11:05:37;;;;;;;;;6.00;6.00;;;;;25.29;41.85;100932.56;146613;578;46017;-87
2022/04/27 11:09:29;;;;;;;;;8.00;6.00;;;;;24.53;41.61;100780.88;146614;617;46010;-83
2022/04/27 11:12:22;;;;;;;;;8.33;6.00;;;;;25.51;41.60;100925.34;146617;599;46016;-83
2022/04/27 11:15:18;;;;;;;;;10.33;6.33;;;;;25.61;41.64;100916.44;146617;597;46020;-83
2022/04/27 11:18:10;;;;;;;;;7.67;7.00;;;;;25.65;39.64;100917.28;146616;658;46017;-83
2022/04/27 11:21:06;;;;;;;;;7.33;6.00;;;;;25.63;41.65;100913.75;146611;616;46020;-87
2022/04/27 11:23:59;;;;;;;;;9.67;6.00;;;;;25.73;40.78;100915.44;146611;604;46016;-85
2022/04/27 11:26:51;;;;;;;;;8.00;5.33;;;;;25.86;41.94;100919.81;146618;647;46020;-86
2022/04/27 11:29:44;;;;;;;;;7.00;4.67;;;;;25.97;40.52;100909.94;146613;606;46914;-85
2022/04/27 11:32:38;;;;;;;;;7.67;6.67;;;;;26.06;40.04;100905.44;146615;569;46020;-87
2022/04/27 11:35:50;;;;;;;;;1.00;1.00;;;;;26.00;41.13;100893.09;146613;655;47012;-85
2022/04/27 11:38:43;;;;;;;;;11.33;6.67;;;;;26.11;41.13;100907.16;146612;672;46014;-82
2022/04/27 11:41:40;;;;;;;;;7.67;7.67;;;;;26.13;41.57;100892.06;146616;574;46017;-85
2022/04/27 11:44:34;;;;;;;;;0.00;0.00;;;;;26.18;39.36;100892.03;146615;604;46020;-84
2022/04/27 11:47:35;;;;;;;;;7.33;6.00;;;;;26.19;40.51;100899.09;146613;675;45915;-85
2022/04/27 11:50:27;;;;;;;;;9.33;5.67;;;;;26.11;38.14;100898.31;146612;575;47010;-87
2022/04/27 11:53:19;;;;;;;;;4.00;4.00;;;;;25.86;40.19;100869.34;146615;571;46016;-87
2022/04/27 11:56:12;;;;;;;;;7.33;5.33;;;;;26.03;40.90;100903.69;146618;573;46010;-83
2022/04/27 11:59:13;;;;;;;;;8.00;6.00;;;;;25.99;41.43;100896.66;146613;690;46016;-83
2022/04/27 12:02:05;;;;;;;;;6.67;5.00;;;;;26.08;40.77;100895.69;146609;578;46021;-83
2022/04/27 12:05:04;;;;;;;;;7.33;7.33;;;;;26.09;41.52;100900.97;146613;612;46012;-81
2022/04/27 12:07:56;;;;;;;;;3.75;3.00;;;;;26.07;40.83;100900.09;146616;606;46010;-85
2022/04/27 12:10:49;;;;;;;;;7.50;6.50;;;;;25.97;40.22;100893.12;146612;570;47014;-85
2022/04/27 12:13:41;;;;;;;;;7.50;6.25;;;;;25.92;41.30;100902.91;146617;603;46010;-82
2022/04/27 12:16:34;;;;;;;;;8.67;6.33;;;;;25.89;40.71;100893.22;146612;621;47012;-82
2022/04/27 12:19:33;;;;;;;;;8.67;6.00;;;;;25.99;40.42;100896.66;146618;653;46010;-81
2022/04/27 12:22:25;;;;;;;;;5.67;5.33;;;;;26.04;40.85;100889.50;146615;611;46041;-84
2022/04/27 12:25:17;;;;;;;;;5.33;3.00;;;;;26.12;39.93;100889.44;146612;626;46010;-84
2022/04/27 12:28:11;;;;;;;;;8.67;6.33;;;;;26.15;40.04;100877.00;146605;584;46016;-81
2022/04/27 12:31:17;;;;;;;;;6.75;5.25;;;;;26.19;40.86;100881.37;146617;667;45021;-83
2022/04/27 12:37:29;;;;;;;;;7.50;7.00;;;;;26.23;40.52;100866.28;146616;677;47012;-81
2022/04/27 12:37:34;;;;;;;;;9.25;7.00;;;;;26.14;41.74;100875.25;146616;572;47010;-82
2022/04/27 12:40:29;;;;;;;;;7.00;6.00;;;;;25.96;41.19;100876.31;146614;575;46016;-87
2022/04/27 12:43:23;;;;;;;;;7.33;5.33;;;;;25.22;42.50;100751.25;146616;613;46010;-85
2022/04/27 12:46:16;;;;;;;;;8.00;7.25;;;;;25.85;42.35;100866.66;146611;597;46915;-80
2022/04/27 12:49:09;;;;;;;;;6.75;6.50;;;;;25.74;42.07;100861.44;146613;576;47014;-83
2022/04/27 12:52:39;;;;;;;;;7.00;7.00;;;;;25.67;42.06;100862.38;146612;604;46033;-83
2022/04/27 12:55:31;;;;;;;;;7.00;6.67;;;;;25.60;42.11;100850.91;146615;569;45021;-83
2022/04/27 12:58:30;;;;;;;;;6.33;5.33;;;;;25.59;42.34;100849.16;146614;655;46012;-82
2022/04/27 13:01:31;;;;;;;;;9.00;6.75;;;;;25.58;40.83;100845.62;146614;585;46010;-81
2022/04/27 13:04:25;;;;;;;;;6.00;5.00;;;;;25.54;41.39;100832.38;146617;594;45914;-83
2022/04/27 13:07:18;;;;;;;;;9.75;6.00;;;;;25.63;41.29;100844.72;146617;699;46010;-84
2022/04/27 13:13:23;;;;;;;;;6.67;6.00;;;;;25.59;41.52;100830.59;146617;599;46020;-83
2022/04/27 13:16:15;;;;;;;;;10.67;6.00;;;;;25.63;41.39;100828.78;146610;633;46013;-80
2022/04/27 13:19:07;;;;;;;;;10.33;6.33;;;;;25.66;41.99;100834.06;146618;595;45020;-81
2022/04/27 13:22:00;;;;;;;;;10.00;5.00;;;;;25.64;40.17;100838.50;146610;572;47014;-86
2022/04/27 13:24:52;;;;;;;;;8.00;6.00;;;;;25.64;41.49;100830.53;146615;627;46020;-82
2022/04/27 13:27:45;;;;;;;;;8.33;7.67;;;;;25.64;41.82;100830.53;146612;564;46012;-86
2022/04/27 13:30:37;;;;;;;;;7.00;6.00;;;;;25.62;42.01;100819.94;146614;586;46010;-85
2022/04/27 13:33:29;;;;;;;;;7.25;5.75;;;;;25.61;42.39;100828.81;146609;563;46915;-82
2022/04/27 13:36:21;;;;;;;;;6.00;4.50;;;;;25.51;42.39;100812.06;146614;624;46020;-84
2022/04/27 13:39:14;;;;;;;;;5.00;5.00;;;;;25.45;41.89;100832.47;146614;624;46014;-84
2022/04/27 13:42:06;;;;;;;;;6.33;4.33;;;;;25.26;40.21;100826.41;146616;603;46020;-82
2022/04/27 13:44:58;;;;;;;;;7.00;7.00;;;;;25.16;42.05;100819.44;146612;653;46017;-84
2022/04/27 13:47:50;;;;;;;;;6.00;6.00;;;;;25.05;42.35;100822.12;146613;691;46020;-84
2022/04/27 13:50:43;;;;;;;;;9.00;7.00;;;;;25.00;43.31;100824.81;146614;595;46914;-83
2022/04/27 13:53:35;;;;;;;;;8.00;7.25;;;;;24.96;43.04;100809.81;146611;681;45021;-83
2022/04/27 13:56:27;;;;;;;;;8.00;7.25;;;;;24.88;41.14;100807.19;146609;565;46016;-85
2022/04/27 13:59:19;;;;;;;;;6.50;6.50;;;;;24.92;42.63;100807.16;146616;623;45020;-84
2022/04/27 14:02:16;;;;;;;;;6.67;5.00;;;;;24.90;42.93;100801.88;146610;597;46915;-84
2022/04/27 14:05:09;;;;;;;;;7.00;5.75;;;;;24.94;42.99;100811.56;146615;628;46020;-81
2022/04/27 14:08:02;;;;;;;;;8.00;6.33;;;;;24.89;42.74;100800.09;146616;592;46016;-84
2022/04/27 14:10:55;;;;;;;;;7.75;7.00;;;;;24.88;42.92;100803.66;146613;627;46020;-82